グランド・テール島 の空港の天気 - METARとTAF

ポワンタピートル国際空港 ( TFFR / PTP ) - グアドループ グランド・テール島
飛行場実況気象(Metar)
観測時間09/27 21:00 AST (09/28 01:00 UTC)
風向・風速南東 2m/s
視程10km以上
天気現象
全天の8割程度の雲 雲底高度 940m
気温26℃
湿度89%
気圧1011hPa
METARTFFR 280100Z AUTO 13004KT 9999 BKN031/// ///TCU 26/24 Q1011 TEMPO 3000 SHRA FEW015CB BKN018TCU
過去の天気等 Google飛行場航空写真 Wunderground天気予報

過去48時間のMETAR

飛行場予報(TAF)
発表時間: 9/27 19:00 AST (9/27 23:00 UTC)
予報対象時間: 27日20時 AST ~ 28日20時 AST
風向・風速東南東 5m/s
視程10km以上
全天の4割程度の雲 雲底高度 760m
全天の4割程度の雲 雲底高度 1220m
27日20時 AST ~ 28日20時 AST に 確率 40% で一時的に
視程3000m
天気現象しゅう雨
少しの積乱雲 雲底高度 460m
全天の8割程度の塔状積雲 雲底高度 550m
TAF TFFR 272300Z 2800/2824 11010KT 9999 SCT025 SCT040
PROB40 TEMPO 2800/2824 3000 SHRA FEW015CB BKN018TCU